Jolyn — PJWG — position and weather

sailwx.info

Track history (hours):
 
Tides and Currents Weather Stations Pressure Air Temp Water Temp Dewpoint Dewpoint Depression Visibility Wind Speed Wind Dir Waves Ship Positions

Jolyn

Last reported at 2015-Sep-02 07:34 UTC. Time now 2015-Sep-02 08:31 UTC.
Position N 53°32' E 009°57'.

Length 89 m; draft 5.6 m.

Type: Cargo ship. MMSI: 306813000.

Date/timePositionNaut miles runAvg speedWind from/ knotsBaromVisibWave heightAir tempDewpointWater temp
2015-Sep-02 07:34N 53°32' E 009°57'0 0.0
2015-Sep-02 06:34N 53°32' E 009°57'0 0.0
2015-Sep-02 05:33N 53°32' E 009°57'2 2.4
2015-Sep-02 04:33N 53°30' E 009°59'1 0.7
2015-Sep-02 03:32N 53°29' E 009°59'0 0.0
2015-Sep-02 02:32N 53°29' E 009°59'0 0.0
2015-Sep-02 01:32N 53°29' E 009°59'0 0.0
2015-Sep-02 00:32N 53°29' E 009°59'0 0.0
2015-Sep-01 23:32N 53°29' E 009°59'0 0.0
2015-Sep-01 22:32N 53°29' E 009°59'0 0.0
2015-Sep-01 21:32N 53°29' E 009°59'0 0.0
2015-Sep-01 20:32N 53°29' E 009°59'0 0.0
2015-Sep-01 19:32N 53°29' E 009°59'0 0.0
2015-Sep-01 18:32N 53°29' E 009°59'0 0.1
2015-Sep-01 17:34N 53°29' E 009°59'2 2.5
2015-Sep-01 16:34N 53°31' E 009°56'6 5.8
2015-Sep-01 15:33N 53°33' E 009°47'7 7.2
2015-Sep-01 14:33N 53°36' E 009°36'2 2.0
2015-Sep-01 13:27N 53°37' E 009°33'0 0.0
2015-Sep-01 12:33N 53°37' E 009°33'0 0.1
2015-Sep-01 11:33N 53°37' E 009°33'0 0.1
2015-Sep-01 10:27N 53°37' E 009°33'0 0.0
2015-Sep-01 09:21N 53°37' E 009°33'0 0.0
2015-Sep-01 08:33N 53°37' E 009°33'0 0.1
2015-Sep-01 07:27N 53°37' E 009°33'0 0.0
2015-Sep-01 05:24N 53°37' E 009°33'0 0.1
2015-Sep-01 04:33N 53°37' E 009°33'0 0.0
2015-Sep-01 03:33N 53°37' E 009°33'0 0.0
2015-Sep-01 02:30N 53°37' E 009°33'0 0.0
2015-Sep-01 01:27N 53°37' E 009°33'0 0.0
2015-Sep-01 00:15N 53°37' E 009°33'0 0.2
2015-Aug-31 23:32N 53°37' E 009°33'0 0.1
2015-Aug-31 22:33N 53°37' E 009°33'0 0.0
2015-Aug-31 21:33N 53°37' E 009°33'0 0.0
2015-Aug-31 20:33N 53°37' E 009°33'0 0.1
2015-Aug-31 19:30N 53°37' E 009°33'0 0.0
2015-Aug-31 18:30N 53°37' E 009°33'0 0.0
2015-Aug-31 17:29N 53°37' E 009°33'0 0.1
2015-Aug-31 16:08N 53°37' E 009°33'0 0.1
2015-Aug-31 15:33N 53°37' E 009°33'0 0.0
2015-Aug-31 14:30N 53°37' E 009°33'0 0.0
2015-Aug-31 13:33N 53°37' E 009°33'0 0.0
2015-Aug-31 12:30N 53°37' E 009°33'0 0.0
2015-Aug-31 11:30N 53°37' E 009°33'0 0.2
2015-Aug-31 10:33N 53°37' E 009°33'0 0.0
2015-Aug-31 09:33N 53°37' E 009°33'0 0.0
2015-Aug-31 08:33N 53°37' E 009°33'0 0.0
2015-Aug-31 07:21N 53°37' E 009°33'0 0.1
2015-Aug-31 06:33N 53°37' E 009°33'0 0.0
2015-Aug-31 05:30N 53°37' E 009°33'0 0.1
2015-Aug-31 04:33N 53°37' E 009°33'0 0.1
2015-Aug-31 03:30N 53°37' E 009°33'0 0.1
2015-Aug-31 02:30N 53°37' E 009°33'0 0.0
2015-Aug-31 01:33N 53°37' E 009°33'0 0.0
2015-Aug-31 00:33N 53°37' E 009°33'0 0.0
2015-Aug-30 23:33N 53°37' E 009°33'0 0.2
2015-Aug-30 22:33N 53°37' E 009°33'0 0.0
2015-Aug-30 21:15N 53°37' E 009°33'0 0.0
2015-Aug-30 20:33N 53°37' E 009°33'0 0.0
2015-Aug-30 19:27N 53°37' E 009°33'0 0.0
2015-Aug-30 18:27N 53°37' E 009°33'0 0.0
2015-Aug-30 17:33N 53°37' E 009°33'0 0.0
2015-Aug-30 16:33N 53°37' E 009°33'0 0.1
2015-Aug-30 15:24N 53°37' E 009°33'0 0.0
2015-Aug-30 14:33N 53°37' E 009°33'0 0.0
2015-Aug-30 13:09N 53°37' E 009°33'0 0.0
2015-Aug-30 12:33N 53°37' E 009°33'0 0.0
2015-Aug-30 11:33N 53°37' E 009°33'0 0.0
2015-Aug-30 10:33N 53°37' E 009°33'0 0.1
2015-Aug-30 09:27N 53°37' E 009°33'0 0.0
2015-Aug-30 08:27N 53°37' E 009°33'0 0.0
2015-Aug-30 07:32N 53°37' E 009°33'0 0.0
2015-Aug-30 06:30N 53°37' E 009°33'0 0.0
2015-Aug-30 05:33N 53°37' E 009°33'0 0.0
2015-Aug-30 04:33N 53°37' E 009°33'0 0.1
2015-Aug-30 03:33N 53°37' E 009°33'0 0.0
2015-Aug-30 02:33N 53°37' E 009°33'0 0.0
2015-Aug-30 01:33N 53°37' E 009°33'0 0.0
2015-Aug-30 00:33N 53°37' E 009°33'0 0.0
2015-Aug-29 23:33N 53°37' E 009°33'0 0.1
2015-Aug-29 22:32N 53°37' E 009°33'8 7.7
2015-Aug-29 21:33N 53°44' E 009°27'9 9.2
2015-Aug-29 20:33N 53°51' E 009°18'8 7.9
2015-Aug-29 19:33N 53°52' E 009°05'7 7.3
2015-Aug-29 18:34N 53°50' E 008°53'6 6.5
2015-Aug-29 17:34N 53°53' E 008°43'7 6.8
2015-Aug-29 16:33N 53°58' E 008°35'8 7.8
2015-Aug-29 15:33N 53°59' E 008°22'9 9.1
2015-Aug-29 14:33N 53°59' E 008°06'9 8.8
2015-Aug-29 13:33N 53°57' E 007°51'9 9.0
2015-Aug-29 12:32N 53°55' E 007°36'9 9.4
2015-Aug-29 11:34N 53°52' E 007°21'10 9.9
2015-Aug-29 10:33N 53°50' E 007°04'1010.2
2015-Aug-29 09:32N 53°48' E 006°48'1010.2
2015-Aug-29 08:33N 53°45' E 006°31'1010.3
2015-Aug-29 07:33N 53°42' E 006°14'1110.9
2015-Aug-29 06:33N 53°39' E 005°56'1111.4
2015-Aug-29 05:33N 53°36' E 005°38'1211.7
2015-Aug-29 04:33N 53°32' E 005°20'1211.8
2015-Aug-29 03:34N 53°28' E 005°01'1211.5
2015-Aug-29 02:32N 53°23' E 004°43'2210.9
2015-Aug-29 00:31N 53°03' E 004°25'1010.1
2015-Aug-28 23:33N 52°55' E 004°18'10 9.6
2015-Aug-28 22:33N 52°46' E 004°11'9 9.2
2015-Aug-28 21:33N 52°38' E 004°16'10 9.5
2015-Aug-28 20:33N 52°30' E 004°26'6 6.2
2015-Aug-28 19:34N 52°28' E 004°36'7 6.7
2015-Aug-28 18:33N 52°26' E 004°46'4 3.6
2015-Aug-28 17:31N 52°24' E 004°52'0 0.0
2015-Aug-28 16:31N 52°24' E 004°52'0 0.0
2015-Aug-28 15:31N 52°24' E 004°52'0 0.0
2015-Aug-28 14:31N 52°24' E 004°52'0 0.0
2015-Aug-28 13:31N 52°24' E 004°52'0 0.4
2015-Aug-28 12:34N 52°24' E 004°52'0 0.2
2015-Aug-28 11:33N 52°24' E 004°52'0 0.0
2015-Aug-28 10:33N 52°24' E 004°52'0 0.0
2015-Aug-28 09:33N 52°24' E 004°52'0 0.0
2015-Aug-28 08:33N 52°24' E 004°52'0 0.0
2015-Aug-28 07:33N 52°24' E 004°52'0 0.0
2015-Aug-28 06:33N 52°24' E 004°52'0 0.0
2015-Aug-28 05:33N 52°24' E 004°52'0 0.0
2015-Aug-28 04:33N 52°24' E 004°52'0 0.0
2015-Aug-28 03:33N 52°24' E 004°52'0 0.0
2015-Aug-28 02:33N 52°24' E 004°52'0 0.0
2015-Aug-28 01:33N 52°24' E 004°52'0 0.0
2015-Aug-28 00:33N 52°24' E 004°52'0 0.0
2015-Aug-27 23:33N 52°24' E 004°52'0 0.0
2015-Aug-27 22:33N 52°24' E 004°52'0 0.0
2015-Aug-27 21:33N 52°24' E 004°52'0 0.0
2015-Aug-27 20:33N 52°24' E 004°52'0 0.0
2015-Aug-27 19:33N 52°24' E 004°52'0 0.0
2015-Aug-27 18:33N 52°24' E 004°52'0 0.0
2015-Aug-27 17:33N 52°24' E 004°52'0 0.0
2015-Aug-27 16:33N 52°24' E 004°52'0 0.0
2015-Aug-27 14:33N 52°24' E 004°52'0 0.0
2015-Aug-27 13:33N 52°24' E 004°52'0 0.0
2015-Aug-27 12:33N 52°24' E 004°52'0 0.0
2015-Aug-27 11:33N 52°24' E 004°52'0 0.0
2015-Aug-27 10:33N 52°24' E 004°52'0 0.0
2015-Aug-27 09:33N 52°24' E 004°52'0 0.0
2015-Aug-27 08:33N 52°24' E 004°52'0 0.0
2015-Aug-27 07:33N 52°24' E 004°52'0 0.0
2015-Aug-27 06:33N 52°24' E 004°52'0 0.0
2015-Aug-27 05:33N 52°24' E 004°52'0 0.0
2015-Aug-27 04:33N 52°24' E 004°52'0 0.0
2015-Aug-27 03:33N 52°24' E 004°52'0 0.0
2015-Aug-27 02:33N 52°24' E 004°52'0 0.0
2015-Aug-27 01:33N 52°24' E 004°52'0 0.0
2015-Aug-27 00:33N 52°24' E 004°52'0 0.0
2015-Aug-26 23:33N 52°24' E 004°52'0 0.0
2015-Aug-26 22:33N 52°24' E 004°52'0 0.0
2015-Aug-26 21:33N 52°24' E 004°52'0 0.0
2015-Aug-26 20:33N 52°24' E 004°52'0 0.0
2015-Aug-26 19:33N 52°24' E 004°52'0 0.0
2015-Aug-26 18:33N 52°24' E 004°52'0 0.0
2015-Aug-26 17:33N 52°24' E 004°52'0 0.0
2015-Aug-26 16:33N 52°24' E 004°52'0 0.0
2015-Aug-26 15:33N 52°24' E 004°52'0 0.0
2015-Aug-26 14:33N 52°24' E 004°52'0 0.0
2015-Aug-26 13:33N 52°24' E 004°52'0 0.0
2015-Aug-26 12:33N 52°24' E 004°52'7 7.2
2015-Aug-26 11:33N 52°27' E 004°41'5 4.9
2015-Aug-26 10:34N 52°28' E 004°34'8 8.4
2015-Aug-26 09:33N 52°28' E 004°20'8 8.0
2015-Aug-26 08:32N 52°27' E 004°06'0 0.0
2015-Aug-26 07:32N 52°27' E 004°06'0 0.0
2015-Aug-26 06:32N 52°27' E 004°06'2 1.8
2015-Aug-26 05:33N 52°26' E 004°05'5 5.4
2015-Aug-26 04:33N 52°21' E 003°59'3 2.9
2015-Aug-26 03:33N 52°19' E 003°57'4 3.8
2015-Aug-26 02:33N 52°22' E 004°00'2 2.5
2015-Aug-26 01:33N 52°24' E 004°03'2 1.5
2015-Aug-26 00:33N 52°25' E 004°04'1 1.1
2015-Aug-25 23:33N 52°26' E 004°05'1 1.4
2015-Aug-25 22:32N 52°28' E 004°06'0 0.3
2015-Aug-25 21:32N 52°28' E 004°06'0 0.1
2015-Aug-25 20:29N 52°28' E 004°06'0 0.1
2015-Aug-25 19:32N 52°28' E 004°06'0 0.0
2015-Aug-25 18:32N 52°28' E 004°06'0 0.0
2015-Aug-25 17:32N 52°28' E 004°06'0 0.0
2015-Aug-25 16:29N 52°28' E 004°06'6 7.1
2015-Aug-25 15:33N 52°26' E 003°56'3210.2
2015-Aug-25 12:27N 52°01' E 003°25'8 8.6
2015-Aug-25 11:32N 51°54' E 003°28'0 0.0
2015-Aug-25 07:14N 51°53' E 003°29'0 0.0
2015-Aug-25 06:29N 51°53' E 003°29'0 0.0
2015-Aug-25 05:29N 51°53' E 003°29'0 0.0
2015-Aug-25 04:26N 51°53' E 003°28'0 0.0
2015-Aug-25 02:29N 51°53' E 003°28'0 0.0
2015-Aug-25 00:11N 51°53' E 003°28'0 0.1
2015-Aug-24 23:05N 51°53' E 003°28'0 0.0
2015-Aug-24 17:29N 51°53' E 003°28'0 0.0
2015-Aug-24 14:20N 51°53' E 003°28'0 0.0
2015-Aug-24 10:26N 51°53' E 003°28'0 0.0
2015-Aug-24 05:23N 51°53' E 003°28'0 0.1
2015-Aug-24 04:29N 51°53' E 003°28'0 0.0
2015-Aug-24 03:17N 51°53' E 003°28'0 0.0
2015-Aug-24 02:26N 51°53' E 003°28'0 0.1
2015-Aug-24 00:32N 51°53' E 003°28'0 0.0
2015-Aug-23 23:32N 51°53' E 003°28'0 0.0
2015-Aug-23 16:23N 51°53' E 003°28'0 0.0
2015-Aug-23 14:32N 51°53' E 003°28'0 0.0
2015-Aug-23 11:26N 51°53' E 003°28'  
Track history (hours):
 
Tides and Currents Weather Stations Pressure Air Temp Water Temp Dewpoint Dewpoint Depression Visibility Wind Speed Wind Dir Waves Ship Positions

Jolyn

Last reported at 2015-Sep-02 07:34 UTC. Time now 2015-Sep-02 08:31 UTC.
Position N 53°32' E 009°57'.

Length 89 m; draft 5.6 m.

Type: Cargo ship. MMSI: 306813000.

Date/timePositionNaut miles runAvg speedWind from/ knotsBaromVisibWave heightAir tempDewpointWater temp
2015-Sep-02 07:34N 53°32' E 009°57'0 0.0
2015-Sep-02 06:34N 53°32' E 009°57'0 0.0
2015-Sep-02 05:33N 53°32' E 009°57'2 2.4
2015-Sep-02 04:33N 53°30' E 009°59'1 0.7
2015-Sep-02 03:32N 53°29' E 009°59'0 0.0
2015-Sep-02 02:32N 53°29' E 009°59'0 0.0
2015-Sep-02 01:32N 53°29' E 009°59'0 0.0
2015-Sep-02 00:32N 53°29' E 009°59'0 0.0
2015-Sep-01 23:32N 53°29' E 009°59'0 0.0
2015-Sep-01 22:32N 53°29' E 009°59'0 0.0
2015-Sep-01 21:32N 53°29' E 009°59'0 0.0
2015-Sep-01 20:32N 53°29' E 009°59'0 0.0
2015-Sep-01 19:32N 53°29' E 009°59'0 0.0
2015-Sep-01 18:32N 53°29' E 009°59'0 0.1
2015-Sep-01 17:34N 53°29' E 009°59'2 2.5
2015-Sep-01 16:34N 53°31' E 009°56'6 5.8
2015-Sep-01 15:33N 53°33' E 009°47'7 7.2
2015-Sep-01 14:33N 53°36' E 009°36'2 2.0
2015-Sep-01 13:27N 53°37' E 009°33'0 0.0
2015-Sep-01 12:33N 53°37' E 009°33'0 0.1
2015-Sep-01 11:33N 53°37' E 009°33'0 0.1
2015-Sep-01 10:27N 53°37' E 009°33'0 0.0
2015-Sep-01 09:21N 53°37' E 009°33'0 0.0
2015-Sep-01 08:33N 53°37' E 009°33'0 0.1
2015-Sep-01 07:27N 53°37' E 009°33'0 0.0
2015-Sep-01 05:24N 53°37' E 009°33'0 0.1
2015-Sep-01 04:33N 53°37' E 009°33'0 0.0
2015-Sep-01 03:33N 53°37' E 009°33'0 0.0
2015-Sep-01 02:30N 53°37' E 009°33'0 0.0
2015-Sep-01 01:27N 53°37' E 009°33'0 0.0
2015-Sep-01 00:15N 53°37' E 009°33'0 0.2
2015-Aug-31 23:32N 53°37' E 009°33'0 0.1
2015-Aug-31 22:33N 53°37' E 009°33'0 0.0
2015-Aug-31 21:33N 53°37' E 009°33'0 0.0
2015-Aug-31 20:33N 53°37' E 009°33'0 0.1
2015-Aug-31 19:30N 53°37' E 009°33'0 0.0
2015-Aug-31 18:30N 53°37' E 009°33'0 0.0
2015-Aug-31 17:29N 53°37' E 009°33'0 0.1
2015-Aug-31 16:08N 53°37' E 009°33'0 0.1
2015-Aug-31 15:33N 53°37' E 009°33'0 0.0
2015-Aug-31 14:30N 53°37' E 009°33'0 0.0
2015-Aug-31 13:33N 53°37' E 009°33'0 0.0
2015-Aug-31 12:30N 53°37' E 009°33'0 0.0
2015-Aug-31 11:30N 53°37' E 009°33'0 0.2
2015-Aug-31 10:33N 53°37' E 009°33'0 0.0
2015-Aug-31 09:33N 53°37' E 009°33'0 0.0
2015-Aug-31 08:33N 53°37' E 009°33'0 0.0
2015-Aug-31 07:21N 53°37' E 009°33'0 0.1
2015-Aug-31 06:33N 53°37' E 009°33'0 0.0
2015-Aug-31 05:30N 53°37' E 009°33'0 0.1
2015-Aug-31 04:33N 53°37' E 009°33'0 0.1
2015-Aug-31 03:30N 53°37' E 009°33'0 0.1
2015-Aug-31 02:30N 53°37' E 009°33'0 0.0
2015-Aug-31 01:33N 53°37' E 009°33'0 0.0
2015-Aug-31 00:33N 53°37' E 009°33'0 0.0
2015-Aug-30 23:33N 53°37' E 009°33'0 0.2
2015-Aug-30 22:33N 53°37' E 009°33'0 0.0
2015-Aug-30 21:15N 53°37' E 009°33'0 0.0
2015-Aug-30 20:33N 53°37' E 009°33'0 0.0
2015-Aug-30 19:27N 53°37' E 009°33'0 0.0
2015-Aug-30 18:27N 53°37' E 009°33'0 0.0
2015-Aug-30 17:33N 53°37' E 009°33'0 0.0
2015-Aug-30 16:33N 53°37' E 009°33'0 0.1
2015-Aug-30 15:24N 53°37' E 009°33'0 0.0
2015-Aug-30 14:33N 53°37' E 009°33'0 0.0
2015-Aug-30 13:09N 53°37' E 009°33'0 0.0
2015-Aug-30 12:33N 53°37' E 009°33'0 0.0
2015-Aug-30 11:33N 53°37' E 009°33'0 0.0
2015-Aug-30 10:33N 53°37' E 009°33'0 0.1
2015-Aug-30 09:27N 53°37' E 009°33'0 0.0
2015-Aug-30 08:27N 53°37' E 009°33'0 0.0
2015-Aug-30 07:32N 53°37' E 009°33'0 0.0
2015-Aug-30 06:30N 53°37' E 009°33'0 0.0
2015-Aug-30 05:33N 53°37' E 009°33'0 0.0
2015-Aug-30 04:33N 53°37' E 009°33'0 0.1
2015-Aug-30 03:33N 53°37' E 009°33'0 0.0
2015-Aug-30 02:33N 53°37' E 009°33'0 0.0
2015-Aug-30 01:33N 53°37' E 009°33'0 0.0
2015-Aug-30 00:33N 53°37' E 009°33'0 0.0
2015-Aug-29 23:33N 53°37' E 009°33'0 0.1
2015-Aug-29 22:32N 53°37' E 009°33'8 7.7
2015-Aug-29 21:33N 53°44' E 009°27'9 9.2
2015-Aug-29 20:33N 53°51' E 009°18'8 7.9
2015-Aug-29 19:33N 53°52' E 009°05'7 7.3
2015-Aug-29 18:34N 53°50' E 008°53'6 6.5
2015-Aug-29 17:34N 53°53' E 008°43'7 6.8
2015-Aug-29 16:33N 53°58' E 008°35'8 7.8
2015-Aug-29 15:33N 53°59' E 008°22'9 9.1
2015-Aug-29 14:33N 53°59' E 008°06'9 8.8
2015-Aug-29 13:33N 53°57' E 007°51'9 9.0
2015-Aug-29 12:32N 53°55' E 007°36'9 9.4
2015-Aug-29 11:34N 53°52' E 007°21'10 9.9
2015-Aug-29 10:33N 53°50' E 007°04'1010.2
2015-Aug-29 09:32N 53°48' E 006°48'1010.2
2015-Aug-29 08:33N 53°45' E 006°31'1010.3
2015-Aug-29 07:33N 53°42' E 006°14'1110.9
2015-Aug-29 06:33N 53°39' E 005°56'1111.4
2015-Aug-29 05:33N 53°36' E 005°38'1211.7
2015-Aug-29 04:33N 53°32' E 005°20'1211.8
2015-Aug-29 03:34N 53°28' E 005°01'1211.5
2015-Aug-29 02:32N 53°23' E 004°43'2210.9
2015-Aug-29 00:31N 53°03' E 004°25'1010.1
2015-Aug-28 23:33N 52°55' E 004°18'10 9.6
2015-Aug-28 22:33N 52°46' E 004°11'9 9.2
2015-Aug-28 21:33N 52°38' E 004°16'10 9.5
2015-Aug-28 20:33N 52°30' E 004°26'6 6.2
2015-Aug-28 19:34N 52°28' E 004°36'7 6.7
2015-Aug-28 18:33N 52°26' E 004°46'4 3.6
2015-Aug-28 17:31N 52°24' E 004°52'0 0.0
2015-Aug-28 16:31N 52°24' E 004°52'0 0.0
2015-Aug-28 15:31N 52°24' E 004°52'0 0.0
2015-Aug-28 14:31N 52°24' E 004°52'0 0.0
2015-Aug-28 13:31N 52°24' E 004°52'0 0.4
2015-Aug-28 12:34N 52°24' E 004°52'0 0.2
2015-Aug-28 11:33N 52°24' E 004°52'0 0.0
2015-Aug-28 10:33N 52°24' E 004°52'0 0.0
2015-Aug-28 09:33N 52°24' E 004°52'0 0.0
2015-Aug-28 08:33N 52°24' E 004°52'0 0.0
2015-Aug-28 07:33N 52°24' E 004°52'0 0.0
2015-Aug-28 06:33N 52°24' E 004°52'0 0.0
2015-Aug-28 05:33N 52°24' E 004°52'0 0.0
2015-Aug-28 04:33N 52°24' E 004°52'0 0.0
2015-Aug-28 03:33N 52°24' E 004°52'0 0.0
2015-Aug-28 02:33N 52°24' E 004°52'0 0.0
2015-Aug-28 01:33N 52°24' E 004°52'0 0.0
2015-Aug-28 00:33N 52°24' E 004°52'0 0.0
2015-Aug-27 23:33N 52°24' E 004°52'0 0.0
2015-Aug-27 22:33N 52°24' E 004°52'0 0.0
2015-Aug-27 21:33N 52°24' E 004°52'0 0.0
2015-Aug-27 20:33N 52°24' E 004°52'0 0.0
2015-Aug-27 19:33N 52°24' E 004°52'0 0.0
2015-Aug-27 18:33N 52°24' E 004°52'0 0.0
2015-Aug-27 17:33N 52°24' E 004°52'0 0.0
2015-Aug-27 16:33N 52°24' E 004°52'0 0.0
2015-Aug-27 14:33N 52°24' E 004°52'0 0.0
2015-Aug-27 13:33N 52°24' E 004°52'0 0.0
2015-Aug-27 12:33N 52°24' E 004°52'0 0.0
2015-Aug-27 11:33N 52°24' E 004°52'0 0.0
2015-Aug-27 10:33N 52°24' E 004°52'0 0.0
2015-Aug-27 09:33N 52°24' E 004°52'0 0.0
2015-Aug-27 08:33N 52°24' E 004°52'0 0.0
2015-Aug-27 07:33N 52°24' E 004°52'0 0.0
2015-Aug-27 06:33N 52°24' E 004°52'0 0.0
2015-Aug-27 05:33N 52°24' E 004°52'0 0.0
2015-Aug-27 04:33N 52°24' E 004°52'0 0.0
2015-Aug-27 03:33N 52°24' E 004°52'0 0.0
2015-Aug-27 02:33N 52°24' E 004°52'0 0.0
2015-Aug-27 01:33N 52°24' E 004°52'0 0.0
2015-Aug-27 00:33N 52°24' E 004°52'0 0.0
2015-Aug-26 23:33N 52°24' E 004°52'0 0.0
2015-Aug-26 22:33N 52°24' E 004°52'0 0.0
2015-Aug-26 21:33N 52°24' E 004°52'0 0.0
2015-Aug-26 20:33N 52°24' E 004°52'0 0.0
2015-Aug-26 19:33N 52°24' E 004°52'0 0.0
2015-Aug-26 18:33N 52°24' E 004°52'0 0.0
2015-Aug-26 17:33N 52°24' E 004°52'0 0.0
2015-Aug-26 16:33N 52°24' E 004°52'0 0.0
2015-Aug-26 15:33N 52°24' E 004°52'0 0.0
2015-Aug-26 14:33N 52°24' E 004°52'0 0.0
2015-Aug-26 13:33N 52°24' E 004°52'0 0.0
2015-Aug-26 12:33N 52°24' E 004°52'7 7.2
2015-Aug-26 11:33N 52°27' E 004°41'5 4.9
2015-Aug-26 10:34N 52°28' E 004°34'8 8.4
2015-Aug-26 09:33N 52°28' E 004°20'8 8.0
2015-Aug-26 08:32N 52°27' E 004°06'0 0.0
2015-Aug-26 07:32N 52°27' E 004°06'0 0.0
2015-Aug-26 06:32N 52°27' E 004°06'2 1.8
2015-Aug-26 05:33N 52°26' E 004°05'5 5.4
2015-Aug-26 04:33N 52°21' E 003°59'3 2.9
2015-Aug-26 03:33N 52°19' E 003°57'4 3.8
2015-Aug-26 02:33N 52°22' E 004°00'2 2.5
2015-Aug-26 01:33N 52°24' E 004°03'2 1.5
2015-Aug-26 00:33N 52°25' E 004°04'1 1.1
2015-Aug-25 23:33N 52°26' E 004°05'1 1.4
2015-Aug-25 22:32N 52°28' E 004°06'0 0.3
2015-Aug-25 21:32N 52°28' E 004°06'0 0.1
2015-Aug-25 20:29N 52°28' E 004°06'0 0.1
2015-Aug-25 19:32N 52°28' E 004°06'0 0.0
2015-Aug-25 18:32N 52°28' E 004°06'0 0.0
2015-Aug-25 17:32N 52°28' E 004°06'0 0.0
2015-Aug-25 16:29N 52°28' E 004°06'6 7.1
2015-Aug-25 15:33N 52°26' E 003°56'3210.2
2015-Aug-25 12:27N 52°01' E 003°25'8 8.6
2015-Aug-25 11:32N 51°54' E 003°28'0 0.0
2015-Aug-25 07:14N 51°53' E 003°29'0 0.0
2015-Aug-25 06:29N 51°53' E 003°29'0 0.0
2015-Aug-25 05:29N 51°53' E 003°29'0 0.0
2015-Aug-25 04:26N 51°53' E 003°28'0 0.0
2015-Aug-25 02:29N 51°53' E 003°28'0 0.0
2015-Aug-25 00:11N 51°53' E 003°28'0 0.1
2015-Aug-24 23:05N 51°53' E 003°28'0 0.0
2015-Aug-24 17:29N 51°53' E 003°28'0 0.0
2015-Aug-24 14:20N 51°53' E 003°28'0 0.0
2015-Aug-24 10:26N 51°53' E 003°28'0 0.0
2015-Aug-24 05:23N 51°53' E 003°28'0 0.1
2015-Aug-24 04:29N 51°53' E 003°28'0 0.0
2015-Aug-24 03:17N 51°53' E 003°28'0 0.0
2015-Aug-24 02:26N 51°53' E 003°28'0 0.1
2015-Aug-24 00:32N 51°53' E 003°28'0 0.0
2015-Aug-23 23:32N 51°53' E 003°28'0 0.0
2015-Aug-23 16:23N 51°53' E 003°28'0 0.0
2015-Aug-23 14:32N 51°53' E 003°28'0 0.0
2015-Aug-23 11:26N 51°53' E 003°28'  

Dump ship's entire track history